Time;durP1;ratioP1;P1;durP2;ratioP2;P2;SDS_P1;SDS_P2;PMS_P1;PMS_P2;Temp;Humidity;BMP_temperature;BMP_pressure;BME280_temperature;BME280_humidity;BME280_pressure;Samples;Min_cycle;Max_cycle;Signal;HPM_P1;HPM_P2
2022/05/11 00:01:56;;;;;;;17.63;0.98;;;;;;;16.98;71.03;100739.94;7387207;19;20114;-68
2022/05/11 00:04:24;;;;;;;7.78;1.17;;;;;;;16.88;71.07;100744.78;7388820;19;20402;-68
2022/05/11 00:06:51;;;;;;;9.30;0.55;;;;;;;16.81;71.43;100747.41;7386694;19;20685;-69
2022/05/11 00:09:18;;;;;;;8.00;0.80;;;;;;;16.76;71.44;100736.53;7385696;19;20523;-69
2022/05/11 00:11:45;;;;;;;12.05;1.02;;;;;;;16.73;72.25;100731.63;7388241;19;20010;-69
2022/05/11 00:14:13;;;;;;;9.65;1.27;;;;;;;16.72;71.90;100724.66;7390067;19;20216;-69
2022/05/11 00:16:41;;;;;;;10.88;0.90;;;;;;;16.72;71.77;100729.16;7387215;19;20153;-69
2022/05/11 00:19:08;;;;;;;10.55;1.67;;;;;;;16.74;71.42;100724.47;7388458;19;20031;-69
2022/05/11 00:21:36;;;;;;;13.80;0.90;;;;;;;16.76;71.42;100715.28;7386244;19;20055;-68
2022/05/11 00:24:03;;;;;;;5.53;1.15;;;;;;;16.77;72.57;100706.28;7389157;19;20348;-68
2022/05/11 00:26:31;;;;;;;12.40;0.73;;;;;;;16.78;71.41;100707.94;7384492;19;20023;-69
2022/05/11 00:28:58;;;;;;;12.13;0.85;;;;;;;16.79;71.09;100730.03;7386521;19;20025;-67
2022/05/11 00:31:25;;;;;;;9.45;1.30;;;;;;;16.77;71.06;100732.88;7388779;19;20006;-68
2022/05/11 00:33:52;;;;;;;7.78;0.60;;;;;;;16.70;71.08;100721.41;7388722;19;20040;-69
2022/05/11 00:36:19;;;;;;;8.88;0.60;;;;;;;16.63;71.30;100729.31;7387107;19;20018;-69
2022/05/11 00:38:47;;;;;;;6.60;0.70;;;;;;;16.53;71.83;100733.31;7387761;19;20131;-68
2022/05/11 00:41:14;;;;;;;10.50;0.82;;;;;;;16.48;71.59;100733.88;7383444;19;20111;-68
2022/05/11 00:43:53;;;;;;;9.20;0.65;;;;;;;16.46;72.42;100729.78;7386120;19;20043;-68
2022/05/11 00:46:27;;;;;;;11.07;0.80;;;;;;;16.45;72.24;100733.47;7383729;19;20046;-67
2022/05/11 00:51:45;;;;;;;6.18;0.70;;;;;;;16.44;72.73;100722.00;7382941;19;20021;-68
2022/05/11 00:54:15;;;;;;;11.50;1.00;;;;;;;16.42;72.63;100715.25;7387294;19;20468;-69
2022/05/11 00:56:49;;;;;;;12.07;1.00;;;;;;;16.43;72.57;100717.72;7382429;19;20018;-69
2022/05/11 00:59:25;;;;;;;11.60;0.77;;;;;;;16.37;72.09;100710.50;7381168;19;20013;-69
2022/05/11 01:01:52;;;;;;;6.40;0.60;;;;;;;16.32;72.27;100710.28;7385273;19;20013;-68
2022/05/11 01:04:21;;;;;;;5.22;0.70;;;;;;;16.30;72.53;100714.97;7386195;19;20011;-69
2022/05/11 01:06:49;;;;;;;6.47;0.60;;;;;;;16.26;72.58;100705.72;7384606;19;20011;-69
2022/05/11 01:09:16;;;;;;;12.13;1.25;;;;;;;16.29;73.29;100704.53;7390586;19;20014;-69
2022/05/11 01:11:47;;;;;;;12.88;0.98;;;;;;;16.29;72.91;100707.19;7394137;19;20019;-69
2022/05/11 01:14:19;;;;;;;8.90;0.60;;;;;;;16.26;72.63;100695.94;7394920;19;20435;-70
2022/05/11 01:16:47;;;;;;;11.07;0.60;;;;;;;16.24;73.17;100694.50;7394206;19;20543;-70
2022/05/11 01:19:24;;;;;;;10.65;1.10;;;;;;;16.22;72.91;100692.03;7391981;19;20007;-68
2022/05/11 01:22:02;;;;;;;11.30;1.42;;;;;;;16.29;73.17;100688.59;7390347;19;20683;-68
2022/05/11 01:24:41;;;;;;;6.28;0.68;;;;;;;16.27;72.52;100696.75;7390045;19;20044;-67
2022/05/11 01:27:25;;;;;;;7.47;0.60;;;;;;;16.31;72.68;100695.34;7394005;19;20025;-67
2022/05/11 01:29:53;;;;;;;10.18;1.08;;;;;;;16.25;72.73;100696.94;7390196;19;20014;-69
2022/05/11 01:32:23;;;;;;;9.05;0.70;;;;;;;16.19;72.81;100689.75;7394863;19;20030;-68
2022/05/11 01:34:56;;;;;;;8.65;0.60;;;;;;;16.17;73.13;100696.25;7392828;19;20034;-69
2022/05/11 01:37:23;;;;;;;9.30;0.63;;;;;;;16.19;74.10;100689.75;7390215;19;20034;-68
2022/05/11 01:39:50;;;;;;;6.53;0.50;;;;;;;16.19;73.74;100694.25;7393037;19;20023;-70
2022/05/11 01:42:19;;;;;;;4.35;0.70;;;;;;;16.20;73.64;100677.31;7395208;19;20011;-67
2022/05/11 01:44:46;;;;;;;14.50;0.80;;;;;;;16.18;73.08;100679.31;7394147;19;20034;-69
2022/05/11 01:47:13;;;;;;;4.22;0.47;;;;;;;16.19;73.10;100679.13;7392442;19;20007;-68
2022/05/11 01:49:40;;;;;;;12.63;0.82;;;;;;;16.22;73.05;100683.22;7389514;19;20026;-68
2022/05/11 01:52:08;;;;;;;13.48;1.10;;;;;;;16.15;73.94;100688.47;7394898;19;20022;-68
2022/05/11 01:54:35;;;;;;;9.90;0.70;;;;;;;16.13;74.00;100690.53;7394511;19;20214;-68
2022/05/11 01:57:03;;;;;;;7.25;0.80;;;;;;;16.11;73.94;100686.41;7389017;19;20014;-68
2022/05/11 01:59:30;;;;;;;8.23;0.77;;;;;;;16.04;73.47;100691.69;7391698;19;20118;-67
2022/05/11 02:01:57;;;;;;;8.75;0.60;;;;;;;16.03;73.93;100684.72;7390211;19;20036;-68
2022/05/11 02:09:41;;;;;;;11.55;0.77;;;;;;;16.06;73.96;100649.00;7389034;19;20006;-70
2022/05/11 02:12:10;;;;;;;11.38;0.65;;;;;;;16.04;73.73;100651.88;7391311;19;20360;-68
2022/05/11 02:14:37;;;;;;;11.10;0.70;;;;;;;16.04;73.50;100669.63;7392182;19;20033;-70
2022/05/11 02:17:05;;;;;;;9.98;0.93;;;;;;;16.01;73.74;100670.00;7394477;19;20290;-69
2022/05/11 02:19:32;;;;;;;6.13;0.60;;;;;;;15.91;73.99;100669.50;7388209;19;20078;-71
2022/05/11 02:21:59;;;;;;;8.70;0.80;;;;;;;15.84;74.15;100666.81;7391217;19;20018;-68
2022/05/11 02:24:26;;;;;;;7.93;0.82;;;;;;;15.91;75.97;100667.66;7392509;19;20257;-69
2022/05/11 02:26:54;;;;;;;9.05;0.70;;;;;;;15.93;74.44;100672.78;7388994;19;20027;-71
2022/05/11 02:29:23;;;;;;;8.70;0.52;;;;;;;15.93;74.53;100678.09;7389297;19;20085;-68
2022/05/11 02:31:50;;;;;;;9.75;0.52;;;;;;;15.93;74.52;100673.63;7388585;19;20006;-67
2022/05/11 02:35:12;;;;;;;10.57;0.60;;;;;;;15.92;74.27;100665.84;7388029;19;20006;-68
2022/05/11 02:37:07;;;;;;;6.60;0.90;;;;;;;15.87;73.92;100663.75;7387923;19;20037;-67
2022/05/11 02:39:35;;;;;;;8.27;0.82;;;;;;;15.84;75.24;100664.16;7387671;19;20083;-69
2022/05/11 02:42:02;;;;;;;10.85;0.85;;;;;;;15.79;74.83;100683.31;7387592;19;20074;-70
2022/05/11 02:44:30;;;;;;;11.00;0.98;;;;;;;15.76;74.61;100691.63;7390477;19;20460;-70
2022/05/11 02:46:56;;;;;;;8.25;0.85;;;;;;;15.75;75.04;100691.81;7389392;19;20011;-68
2022/05/11 02:49:23;;;;;;;11.88;0.57;;;;;;;15.74;75.12;100692.84;7391110;19;20051;-68
2022/05/11 02:51:50;;;;;;;10.82;1.00;;;;;;;15.78;75.09;100680.84;7387090;19;20015;-68
2022/05/11 02:56:45;;;;;;;11.43;1.05;;;;;;;15.71;75.45;100654.22;7390381;19;20042;-67
2022/05/11 02:59:12;;;;;;;16.88;1.13;;;;;;;15.72;75.56;100660.38;7390319;19;20015;-69
2022/05/11 03:01:39;;;;;;;8.75;0.60;;;;;;;15.67;75.25;100646.84;7386822;19;20006;-70
2022/05/11 03:04:06;;;;;;;11.68;0.70;;;;;;;15.69;75.55;100648.31;7389407;19;20019;-68
2022/05/11 03:06:33;;;;;;;12.65;1.15;;;;;;;15.68;75.26;100636.06;7388522;19;20021;-69
2022/05/11 03:09:00;;;;;;;10.65;0.80;;;;;;;15.67;75.37;100637.06;7388044;19;20014;-68
2022/05/11 03:11:27;;;;;;;9.65;0.68;;;;;;;15.71;76.39;100648.94;7385939;19;20090;-69
2022/05/11 03:13:54;;;;;;;13.13;0.95;;;;;;;15.69;75.64;100647.50;7387874;19;20360;-68
2022/05/11 03:16:26;;;;;;;10.20;0.60;;;;;;;15.65;75.54;100649.69;7388934;19;20555;-68
2022/05/11 03:18:53;;;;;;;9.88;0.90;;;;;;;15.62;75.78;100658.03;7386419;19;20019;-70
2022/05/11 03:21:21;;;;;;;6.50;0.60;;;;;;;15.62;75.85;100660.69;7385926;19;20294;-68
2022/05/11 03:23:48;;;;;;;12.23;0.73;;;;;;;15.64;75.77;100665.81;7389335;19;20017;-69
2022/05/11 03:26:15;;;;;;;10.38;0.98;;;;;;;15.64;76.37;100642.75;7388990;19;20014;-68
2022/05/11 03:28:42;;;;;;;7.75;0.60;;;;;;;15.69;75.99;100661.56;7389787;19;20091;-68
2022/05/11 03:31:09;;;;;;;9.13;0.60;;;;;;;15.68;75.60;100646.66;7387485;19;20014;-68
2022/05/11 03:36:13;;;;;;;10.00;0.80;;;;;;;15.61;75.46;100648.44;7385843;19;20403;-69
2022/05/11 03:38:40;;;;;;;9.32;0.60;;;;;;;15.55;75.79;100640.41;7387421;19;20018;-69
2022/05/11 03:41:07;;;;;;;10.30;1.23;;;;;;;15.56;76.33;100636.75;7389512;19;20113;-68
2022/05/11 03:43:34;;;;;;;4.38;0.70;;;;;;;15.55;76.63;100641.22;7387549;19;20684;-68
2022/05/11 03:46:01;;;;;;;10.90;0.80;;;;;;;15.55;76.61;100654.47;7386585;19;20123;-69
2022/05/11 03:48:27;;;;;;;12.32;0.82;;;;;;;15.50;76.19;100643.59;7385543;19;20258;-67
2022/05/11 03:50:56;;;;;;;8.40;0.70;;;;;;;15.50;76.47;100643.59;7385585;19;20011;-69
2022/05/11 03:53:22;;;;;;;5.45;0.50;;;;;;;15.49;76.10;100641.16;7384163;19;20014;-68
2022/05/11 03:55:49;;;;;;;8.32;0.70;;;;;;;15.48;76.45;100644.81;7391279;19;20058;-69
2022/05/11 03:58:16;;;;;;;13.40;2.67;;;;;;;15.48;76.81;100629.72;7384201;19;20011;-69
2022/05/11 04:00:43;;;;;;;6.18;0.95;;;;;;;15.49;76.75;100625.22;7386943;19;20025;-68
2022/05/11 04:03:10;;;;;;;7.75;0.60;;;;;;;15.48;76.51;100612.97;7387089;19;20011;-68
2022/05/11 04:05:38;;;;;;;11.15;0.95;;;;;;;15.49;76.42;100615.41;7388843;19;20007;-69
2022/05/11 04:08:05;;;;;;;10.40;0.75;;;;;;;15.43;76.55;100612.72;7384440;19;20019;-69
2022/05/11 04:10:32;;;;;;;8.95;0.80;;;;;;;15.39;76.71;100618.41;7384993;19;20125;-70
2022/05/11 04:13:01;;;;;;;12.27;0.93;;;;;;;15.37;76.68;100628.38;7385763;19;20006;-68
2022/05/11 04:15:29;;;;;;;9.88;1.00;;;;;;;15.40;77.48;100632.47;7385929;19;20007;-70
2022/05/11 04:17:56;;;;;;;6.93;0.93;;;;;;;15.40;77.44;100624.53;7384470;19;20118;-68
2022/05/11 04:20:23;;;;;;;8.60;0.60;;;;;;;15.42;76.84;100622.50;7385770;19;20014;-69
2022/05/11 04:22:50;;;;;;;12.23;0.77;;;;;;;15.42;76.51;100622.50;7385354;19;20006;-69
2022/05/11 04:25:17;;;;;;;12.68;0.60;;;;;;;15.44;76.54;100614.38;7385506;19;20467;-69
2022/05/11 04:27:46;;;;;;;13.10;1.63;;;;;;;15.43;76.75;100612.72;7386412;19;20515;-69
2022/05/11 04:30:15;;;;;;;13.20;1.17;;;;;;;15.43;77.39;100608.25;7388030;19;20052;-68
2022/05/11 04:32:42;;;;;;;12.30;0.98;;;;;;;15.40;76.87;100614.75;7388798;19;20019;-68
2022/05/11 04:35:10;;;;;;;11.15;0.82;;;;;;;15.38;76.77;100615.94;7383420;19;20003;-68
2022/05/11 04:37:37;;;;;;;10.05;0.70;;;;;;;15.35;76.73;100618.97;7385593;19;20545;-68
2022/05/11 04:40:05;;;;;;;11.52;0.60;;;;;;;15.34;77.15;100620.78;7383516;19;20006;-68
2022/05/11 04:42:32;;;;;;;4.90;0.50;;;;;;;15.29;76.99;100617.88;7383380;19;20021;-69
2022/05/11 04:45:00;;;;;;;8.93;0.60;;;;;;;15.28;77.24;100624.22;7397693;19;20127;-69
2022/05/11 04:47:27;;;;;;;9.80;0.85;;;;;;;15.30;78.61;100618.72;7392423;19;20021;-68
2022/05/11 04:49:53;;;;;;;7.85;0.68;;;;;;;15.33;77.48;100616.53;7392179;19;20029;-68
2022/05/11 04:52:20;;;;;;;10.23;0.60;;;;;;;15.28;77.18;100610.13;7392683;19;20014;-69
2022/05/11 04:54:48;;;;;;;9.82;0.70;;;;;;;15.30;77.40;100611.56;7395040;19;20014;-69
2022/05/11 04:57:19;;;;;;;10.57;0.75;;;;;;;15.30;77.56;100608.94;7391728;19;20019;-68
2022/05/11 04:59:46;;;;;;;10.13;0.65;;;;;;;15.25;77.43;100613.97;7396474;19;20026;-67
2022/05/11 05:02:16;;;;;;;11.40;1.50;;;;;;;15.25;77.98;100608.66;7392330;19;20014;-68
2022/05/11 05:04:43;;;;;;;7.55;0.57;;;;;;;15.23;77.71;100596.63;7395722;19;20042;-69
2022/05/11 05:07:10;;;;;;;8.32;0.77;;;;;;;15.25;77.75;100597.25;7388774;19;20357;-67
2022/05/11 05:09:37;;;;;;;18.58;1.08;;;;;;;15.25;77.61;100592.75;7395927;19;20018;-67
2022/05/11 05:12:06;;;;;;;10.13;0.73;;;;;;;15.27;77.62;100592.59;7394339;19;20006;-67
2022/05/11 05:14:33;;;;;;;9.25;0.85;;;;;;;15.29;77.50;100596.69;7393383;19;20301;-68
2022/05/11 05:17:02;;;;;;;11.55;0.60;;;;;;;15.27;77.54;100590.75;7391546;19;20006;-67
2022/05/11 05:19:29;;;;;;;11.48;0.90;;;;;;;15.26;77.92;100594.41;7394109;19;21711;-68
2022/05/11 05:21:57;;;;;;;10.52;1.05;;;;;;;15.27;77.91;100597.88;7394531;19;20011;-68
2022/05/11 05:24:25;;;;;;;10.90;0.95;;;;;;;15.29;77.88;100595.84;7394821;19;20028;-67
2022/05/11 05:26:51;;;;;;;8.48;0.70;;;;;;;15.34;77.27;100585.50;7392304;19;20239;-69
2022/05/11 05:31:55;;;;;;;11.80;0.90;;;;;;;15.43;76.68;100583.56;7395142;19;20090;-68
2022/05/11 05:34:21;;;;;;;12.20;1.20;;;;;;;15.48;77.16;100581.97;7392930;19;20007;-68
2022/05/11 05:36:48;;;;;;;10.50;1.33;;;;;;;15.54;77.24;100583.91;7394221;19;20026;-68
2022/05/11 05:39:15;;;;;;;9.57;0.85;;;;;;;15.56;76.88;100589.81;7396362;19;20018;-69
2022/05/11 05:41:42;;;;;;;11.35;0.70;;;;;;;15.57;76.53;100588.00;7389727;19;20082;-68
2022/05/11 05:44:09;;;;;;;5.75;0.60;;;;;;;15.50;76.13;100595.03;7392579;19;20109;-69
2022/05/11 05:46:37;;;;;;;9.93;0.70;;;;;;;15.44;76.27;100593.16;7388359;19;20010;-69
2022/05/11 05:49:04;;;;;;;11.02;1.05;;;;;;;15.42;76.45;100593.34;7389962;19;20062;-69
2022/05/11 05:51:31;;;;;;;12.63;0.90;;;;;;;15.39;77.30;100591.06;7391887;19;20022;-69
2022/05/11 05:53:58;;;;;;;10.05;1.27;;;;;;;15.40;76.94;100592.69;7388029;19;20025;-69
2022/05/11 05:56:26;;;;;;;10.25;0.80;;;;;;;15.44;77.01;100587.84;7390025;19;20011;-69
2022/05/11 05:58:58;;;;;;;16.25;1.20;;;;;;;15.50;77.36;100589.72;7389195;19;20046;-70
2022/05/11 06:01:26;;;;;;;9.07;0.88;;;;;;;15.54;77.36;100588.38;7392303;19;20036;-68
2022/05/11 06:03:53;;;;;;;8.95;0.80;;;;;;;15.57;76.84;100588.81;7388636;19;20045;-67
2022/05/11 06:06:21;;;;;;;11.70;1.17;;;;;;;15.60;76.98;100583.13;7393568;19;20021;-67
2022/05/11 06:08:48;;;;;;;6.32;0.98;;;;;;;15.69;76.62;100579.34;7393156;19;20011;-69
2022/05/11 06:11:15;;;;;;;9.38;1.27;;;;;;;15.76;76.97;100569.59;7391169;19;20015;-68
2022/05/11 06:13:45;;;;;;;10.50;1.17;;;;;;;15.80;76.54;100586.75;7389309;19;20030;-67
2022/05/11 06:16:15;;;;;;;9.88;1.60;;;;;;;15.85;76.08;100566.81;7392223;19;20081;-69
2022/05/11 06:18:45;;;;;;;10.63;0.90;;;;;;;15.85;76.17;100567.59;7390924;19;20086;-69
2022/05/11 06:21:16;;;;;;;7.37;1.40;;;;;;;15.83;75.83;100567.00;7390668;19;20011;-69
2022/05/11 06:23:44;;;;;;;12.55;2.42;;;;;;;15.88;75.74;100559.25;7391202;19;20091;-68
2022/05/11 06:26:12;;;;;;;11.80;1.70;;;;;;;15.90;76.03;100562.53;7386495;19;20122;-69
2022/05/11 06:28:41;;;;;;;14.45;1.92;;;;;;;15.94;75.42;100555.84;7388424;19;20094;-68
2022/05/11 06:31:16;;;;;;;14.48;1.77;;;;;;;16.04;75.74;100561.63;7387928;19;20374;-67
2022/05/11 06:33:46;;;;;;;14.63;1.80;;;;;;;16.09;75.06;100564.50;7392545;19;20055;-70
2022/05/11 06:36:14;;;;;;;22.27;1.88;;;;;;;16.14;74.88;100567.41;7387542;19;20014;-68
2022/05/11 06:38:42;;;;;;;9.73;1.83;;;;;;;16.17;75.65;100563.53;7389141;19;20526;-68
2022/05/11 06:41:12;;;;;;;13.30;2.00;;;;;;;16.18;74.54;100568.63;7388177;19;20015;-69
2022/05/11 06:43:39;;;;;;;11.18;1.83;;;;;;;16.23;75.12;100560.91;7387458;19;20010;-67
2022/05/11 06:46:06;;;;;;;11.70;1.67;;;;;;;16.30;74.93;100563.59;7391270;19;20006;-69
2022/05/11 06:48:34;;;;;;;15.02;1.98;;;;;;;16.33;74.79;100565.03;7386443;19;20099;-69
2022/05/11 06:51:01;;;;;;;17.50;1.30;;;;;;;16.34;73.78;100556.88;7390834;19;20007;-69
2022/05/11 06:59:16;;;;;;;11.10;1.58;;;;;;;16.37;73.66;100559.13;7387100;19;20018;-69
2022/05/11 07:01:30;;;;;;;8.60;2.20;;;;;;;16.43;72.72;100554.88;7392537;19;20015;-68
2022/05/11 07:03:59;;;;;;;14.15;1.90;;;;;;;16.46;73.00;100543.84;7388587;19;20042;-68
2022/05/11 07:06:26;;;;;;;12.82;1.42;;;;;;;16.49;73.09;100546.13;7385455;19;20003;-70
2022/05/11 07:08:53;;;;;;;11.50;1.73;;;;;;;16.50;72.83;100537.13;7387409;19;20006;-68
2022/05/11 07:13:58;;;;;;;8.45;1.00;;;;;;;16.53;72.41;100534.91;7386953;19;20021;-69
2022/05/11 07:16:27;;;;;;;13.77;1.58;;;;;;;16.53;72.44;100540.22;7387666;19;20011;-69
2022/05/11 07:18:54;;;;;;;8.65;1.42;;;;;;;16.52;72.66;100535.91;7386821;19;20409;-69
2022/05/11 07:21:22;;;;;;;12.45;1.40;;;;;;;16.49;72.78;100535.50;7391806;19;20305;-69
2022/05/11 07:23:49;;;;;;;13.82;1.38;;;;;;;16.47;72.55;100535.69;7387824;19;20021;-69
2022/05/11 07:26:16;;;;;;;10.32;1.30;;;;;;;16.48;73.50;100532.00;7388359;19;20010;-68
2022/05/11 07:28:44;;;;;;;9.73;1.27;;;;;;;16.55;74.68;100519.59;7385122;19;20056;-69
2022/05/11 07:31:11;;;;;;;13.10;1.30;;;;;;;16.56;73.41;100523.84;7390193;19;20026;-70
2022/05/11 07:33:39;;;;;;;9.05;1.13;;;;;;;16.58;73.86;100529.84;7389886;19;20669;-69
2022/05/11 07:36:06;;;;;;;12.15;1.08;;;;;;;16.60;72.63;100524.34;7387334;19;20022;-68
2022/05/11 07:38:38;;;;;;;10.27;1.70;;;;;;;16.65;72.61;100528.03;7385518;19;20086;-68
2022/05/11 07:41:06;;;;;;;14.27;1.40;;;;;;;16.61;71.08;100531.25;7385955;19;20623;-69
2022/05/11 07:43:33;;;;;;;10.68;1.45;;;;;;;16.56;70.91;100531.00;7385799;19;20014;-71
2022/05/11 07:46:01;;;;;;;8.45;1.80;;;;;;;16.55;72.62;100535.53;7386739;19;20015;-68
2022/05/11 07:48:28;;;;;;;8.57;1.15;;;;;;;16.54;71.78;100531.22;7387632;19;20452;-71
2022/05/11 07:50:55;;;;;;;8.80;1.52;;;;;;;16.52;71.51;100530.59;7384882;19;20025;-70
2022/05/11 07:53:22;;;;;;;9.05;1.67;;;;;;;16.56;72.32;100529.16;7389067;19;20432;-70
2022/05/11 07:59:52;;;;;;;11.90;1.25;;;;;;;16.60;71.23;100517.19;7385032;19;20017;-69
2022/05/11 08:01:13;;;;;;;7.00;1.13;;;;;;;16.75;71.48;100521.50;7384975;19;20010;-69
2022/05/11 08:03:40;;;;;;;8.90;1.30;;;;;;;16.76;72.06;100509.88;7388221;19;20020;-69
2022/05/11 08:06:07;;;;;;;12.05;1.42;;;;;;;16.83;72.96;100513.34;7387735;19;20354;-69
2022/05/11 08:08:34;;;;;;;10.82;1.25;;;;;;;16.87;74.12;100515.38;7387303;19;20429;-68
2022/05/11 08:11:01;;;;;;;10.98;1.83;;;;;;;16.85;72.19;100513.97;7384600;19;20011;-69
2022/05/11 08:13:30;;;;;;;10.93;1.10;;;;;;;16.82;71.19;100509.84;7384125;19;20127;-69
2022/05/11 08:15:57;;;;;;;9.45;0.88;;;;;;;16.79;70.12;100504.97;7384469;19;20083;-69
2022/05/11 08:18:24;;;;;;;11.63;1.17;;;;;;;16.80;70.32;100513.75;7386650;19;20019;-69
2022/05/11 08:20:52;;;;;;;7.10;1.05;;;;;;;16.76;69.62;100521.28;7386398;19;20038;-70
2022/05/11 08:23:21;;;;;;;9.32;0.80;;;;;;;16.72;69.18;100508.59;7388591;19;20444;-69
2022/05/11 08:25:49;;;;;;;9.23;0.90;;;;;;;16.73;69.53;100513.72;7384045;19;20010;-69
2022/05/11 08:28:20;;;;;;;7.50;0.70;;;;;;;16.76;69.84;100507.22;7387069;19;20035;-68
2022/05/11 08:33:27;;;;;;;8.80;0.75;;;;;;;16.81;70.32;100508.22;7386567;19;20034;-69
2022/05/11 08:36:21;;;;;;;6.95;0.60;;;;;;;16.85;69.23;100500.69;7384475;19;20352;-70
2022/05/11 08:38:52;;;;;;;9.25;1.48;;;;;;;16.86;68.83;100499.66;7386722;19;20506;-67
2022/05/11 08:41:36;;;;;;;14.38;1.10;;;;;;;16.85;69.00;100506.81;7389073;19;20106;-69
2022/05/11 08:44:08;;;;;;;8.77;0.77;;;;;;;16.85;67.75;100495.38;7386797;19;20011;-69
2022/05/11 08:46:43;;;;;;;;;;;;;;;16.81;67.80;100502.13;7385758;19;20451;-68
2022/05/11 08:49:21;;;;;;;12.77;1.08;;;;;;;16.88;69.09;100503.75;7387983;19;19956;-70
2022/05/11 08:51:58;;;;;;;11.75;1.00;;;;;;;16.89;67.99;100520.50;7386040;19;20127;-69
2022/05/11 08:54:33;;;;;;;11.73;1.20;;;;;;;16.93;67.85;100511.94;7385829;19;20390;-71
2022/05/11 08:57:07;;;;;;;12.75;0.60;;;;;;;16.97;66.62;100510.50;7383814;19;20018;-69
2022/05/11 08:59:37;;;;;;;11.45;1.55;;;;;;;17.00;67.32;100509.28;7383695;19;20019;-68
2022/05/11 09:02:18;;;;;;;7.45;1.05;;;;;;;16.98;66.06;100506.81;7383705;19;20003;-69
2022/05/11 09:04:58;;;;;;;8.93;1.10;;;;;;;16.98;66.40;100504.16;7385058;19;20025;-70
2022/05/11 09:07:31;;;;;;;10.90;0.90;;;;;;;17.00;67.20;100498.66;7382351;19;20014;-69
2022/05/11 09:09:58;;;;;;;;;;;;;;;17.05;67.07;100501.53;7382837;19;20098;-70
2022/05/11 09:12:26;;;;;;;6.38;0.65;;;;;;;17.12;67.69;100498.88;7385770;19;19931;-68
2022/05/11 09:14:59;;;;;;;5.20;0.50;;;;;;;17.10;65.79;100496.41;7383137;19;20006;-68
2022/05/11 09:17:29;;;;;;;7.65;0.60;;;;;;;17.09;65.58;100495.59;7384235;19;20389;-69
2022/05/11 09:20:03;;;;;;;7.65;0.60;;;;;;;17.07;65.39;100497.63;7373517;19;20017;-69
2022/05/11 09:22:35;;;;;;;7.30;0.70;;;;;;;17.13;65.55;100498.66;7372619;19;20302;-69
2022/05/11 09:25:17;;;;;;;20.13;1.23;;;;;;;17.13;64.44;100492.53;7378527;19;20010;-68
2022/05/11 09:27:44;;;;;;;9.40;0.45;;;;;;;17.14;64.47;100479.03;7384469;19;20724;-67
2022/05/11 09:30:19;;;;;;;7.75;0.70;;;;;;;17.16;64.76;100487.63;7391013;19;20018;-71
2022/05/11 09:32:53;;;;;;;9.15;1.45;;;;;;;17.23;65.26;100485.78;7387925;19;20011;-69
2022/05/11 09:35:25;;;;;;;9.75;0.70;;;;;;;17.26;64.86;100479.25;7388093;19;20042;-70
2022/05/11 09:37:56;;;;;;;9.60;0.90;;;;;;;17.28;65.11;100482.50;7392023;19;20037;-71
2022/05/11 09:40:23;;;;;;;12.00;0.63;;;;;;;17.31;65.38;100477.63;7387562;19;20040;-67
2022/05/11 09:42:55;;;;;;;5.93;0.52;;;;;;;17.35;65.11;100481.50;7387757;19;20007;-70
2022/05/11 09:45:36;;;;;;;9.48;0.60;;;;;;;17.45;66.06;100473.91;7392022;19;20014;-68
2022/05/11 09:48:13;;;;;;;6.28;0.60;;;;;;;17.45;65.03;100484.56;7386402;19;20003;-69
2022/05/11 09:51:10;;;;;;;5.45;0.70;;;;;;;17.44;64.17;100479.44;7392134;19;20355;-67
2022/05/11 09:53:38;;;;;;;9.35;1.02;;;;;;;17.40;64.87;100472.88;7388866;19;20010;-68
2022/05/11 09:56:18;;;;;;;11.15;1.23;;;;;;;17.40;65.64;100471.06;7388986;19;20015;-68
2022/05/11 09:58:46;;;;;;;9.20;1.10;;;;;;;17.41;64.97;100471.88;7386489;19;20031;-70
2022/05/11 10:01:17;;;;;;;11.75;1.25;;;;;;;17.34;63.51;100479.03;7386315;19;20035;-70
2022/05/11 10:03:49;;;;;;;12.55;0.80;;;;;;;17.29;64.50;100482.31;7393806;19;20031;-67
2022/05/11 10:06:18;;;;;;;12.27;0.70;;;;;;;17.22;64.83;100476.16;7390435;19;20400;-69
2022/05/11 10:08:48;;;;;;;8.50;0.80;;;;;;;17.21;65.41;100484.38;7388331;19;20023;-70
2022/05/11 10:11:22;;;;;;;9.80;0.70;;;;;;;17.16;64.92;100474.34;7386906;19;20023;-70
2022/05/11 10:22:22;;;;;;;7.57;0.80;;;;;;;17.18;64.51;100476.78;7385476;19;20010;-69
2022/05/11 10:25:00;;;;;;;4.97;1.00;;;;;;;17.15;65.16;100475.34;7386737;19;20003;-68
2022/05/11 10:27:43;;;;;;;8.73;0.68;;;;;;;17.15;65.09;100475.34;7387991;19;20397;-68
2022/05/11 10:30:12;;;;;;;;;;;;;;;17.18;64.67;100464.31;7390740;19;20014;-69
2022/05/11 10:32:42;;;;;;;10.05;0.75;;;;;;;17.09;64.39;100478.81;7387349;19;19962;-69
2022/05/11 10:35:15;;;;;;;5.65;0.50;;;;;;;17.00;65.50;100475.56;7386947;19;20017;-69
2022/05/11 10:38:03;;;;;;;6.35;0.68;;;;;;;16.95;66.46;100483.31;7388831;19;20010;-68
2022/05/11 10:40:43;;;;;;;5.00;0.60;;;;;;;16.98;67.67;100464.28;7384930;19;20214;-68
2022/05/11 10:43:13;;;;;;;4.57;0.52;;;;;;;17.00;67.13;100467.59;7389006;19;20015;-69
2022/05/11 10:45:50;;;;;;;6.53;0.50;;;;;;;17.00;68.14;100472.91;7386096;19;20019;-69
2022/05/11 10:48:45;;;;;;;5.40;0.60;;;;;;;17.02;69.14;100470.00;7383930;19;20074;-70
2022/05/11 10:51:25;;;;;;;8.93;0.70;;;;;;;17.05;70.62;100465.13;7388356;19;20118;-69
2022/05/11 10:54:02;;;;;;;9.68;0.65;;;;;;;16.97;71.52;100461.84;7388867;19;20130;-69
2022/05/11 10:56:47;;;;;;;7.28;0.80;;;;;;;16.99;71.40;100470.44;7389604;19;20491;-67
2022/05/11 10:59:25;;;;;;;8.50;0.70;;;;;;;17.01;71.65;100468.41;7387585;19;20014;-69
2022/05/11 11:02:03;;;;;;;9.63;1.00;;;;;;;16.99;72.21;100465.94;7383767;19;20503;-70
2022/05/11 11:04:43;;;;;;;13.13;0.93;;;;;;;16.99;72.32;100452.66;7389894;19;20507;-69
2022/05/11 11:07:14;;;;;;;6.80;0.60;;;;;;;16.99;71.94;100462.47;7388856;19;20022;-68
2022/05/11 11:09:51;;;;;;;5.47;0.60;;;;;;;16.97;72.17;100459.16;7389728;19;20010;-68
2022/05/11 11:12:31;;;;;;;10.90;0.98;;;;;;;16.95;73.77;100448.75;7390905;19;20026;-70
2022/05/11 11:15:00;;;;;;;8.18;0.70;;;;;;;16.95;73.86;100442.63;7386712;19;20019;-67
2022/05/11 11:17:27;;;;;;;7.75;0.82;;;;;;;16.94;74.57;100451.63;7387707;19;20122;-68
2022/05/11 11:19:58;;;;;;;6.75;0.75;;;;;;;16.90;73.75;100453.06;7387814;19;20038;-68
2022/05/11 11:22:25;;;;;;;4.20;1.02;;;;;;;16.85;74.56;100455.50;7381348;19;20460;-69
2022/05/11 11:25:12;;;;;;;6.93;0.60;;;;;;;16.80;75.06;100452.63;7389458;19;20018;-68
2022/05/11 11:27:58;;;;;;;6.25;0.60;;;;;;;16.72;75.21;100450.97;7384854;19;20475;-69
2022/05/11 11:30:26;;;;;;;11.52;0.93;;;;;;;16.73;76.91;100449.13;7387988;19;20019;-68
2022/05/11 11:33:15;;;;;;;11.63;2.20;;;;;;;16.72;77.90;100461.59;7387842;19;20022;-69
2022/05/11 11:35:57;;;;;;;11.57;0.60;;;;;;;16.71;79.05;100446.66;7384810;19;20058;-68
2022/05/11 11:38:30;;;;;;;7.90;0.90;;;;;;;16.66;79.22;100446.47;7388464;19;20047;-68
2022/05/11 11:41:19;;;;;;;10.10;1.52;;;;;;;16.64;80.24;100445.84;7387432;19;20086;-69
2022/05/11 11:43:49;;;;;;;11.35;2.80;;;;;;;16.53;78.89;100441.91;7388898;19;20468;-69
2022/05/11 11:46:31;;;;;;;12.70;1.00;;;;;;;16.55;79.97;100439.06;7387272;19;20022;-68
2022/05/11 11:49:03;;;;;;;7.93;0.95;;;;;;;16.54;80.54;100438.25;7386241;19;20018;-68
2022/05/11 11:51:52;;;;;;;8.53;0.90;;;;;;;16.55;80.56;100433.75;7386273;19;20034;-68
2022/05/11 11:54:36;;;;;;;13.32;1.95;;;;;;;16.58;81.63;100433.34;7387694;19;20017;-68
2022/05/11 11:57:05;;;;;;;12.30;2.83;;;;;;;16.58;82.13;100436.84;7386017;19;20070;-69
2022/05/11 11:59:36;;;;;;;7.93;1.98;;;;;;;16.60;81.92;100418.06;7385277;19;20593;-69
2022/05/11 12:02:23;;;;;;;8.95;0.73;;;;;;;16.62;81.79;100426.63;7388975;19;20037;-69
2022/05/11 12:04:57;;;;;;;16.50;4.55;;;;;;;16.67;83.07;100422.34;7386218;19;20014;-69
2022/05/11 12:15:39;;;;;;;15.05;1.83;;;;;;;16.62;84.36;100406.19;7387817;19;20010;-69
2022/05/11 12:18:30;;;;;;;15.18;1.70;;;;;;;16.59;84.83;100401.31;7385785;19;20038;-68
2022/05/11 12:20:58;;;;;;;12.00;2.42;;;;;;;16.63;84.22;100404.38;7387767;19;20011;-68
2022/05/11 12:23:29;;;;;;;12.25;3.03;;;;;;;16.57;85.33;100398.00;7387789;19;20011;-69